Washington Boro, Pennsylvania
Current Conditions -  °F | °C
As of 9:53 AM on Monday 22 Dec 2014 (Local Time) from KLNS Reporting Station
Haze Haze  
Wind Chill: 24°   Ceiling: Unl
Heat Index: 32°   Visibility: 6mi
Dew Point: 26°   Wind: 10mph
Humidity: 79%   Direction: 80°E
Pressure: 30.3"   Gusts: NA
Location:  39.99°N, 76.47°W
Report Text: KLNS 221453Z 08009KT 6SM HZ FEW044 00/M03 A3030 RMK AO2 SLP266 I3000 T00001033 55000
Loading
Personal Weather Stations






























Interactive Weather Map New forecast layout! Learn more

10-Day Weather Forecast

Advertisements
Track Severe Weather on mobile